createdAt,value
2022-08-18T00:02:49.699Z,20.91
2022-08-18T00:05:47.633Z,20.88
2022-08-18T00:08:38.385Z,20.87
2022-08-18T00:11:27.554Z,20.81
2022-08-18T00:14:22.549Z,20.75
2022-08-18T00:17:10.118Z,20.72
2022-08-18T00:19:56.972Z,20.62
2022-08-18T00:22:43.918Z,20.64
2022-08-18T00:25:30.607Z,20.59
2022-08-18T00:28:19.493Z,20.52
2022-08-18T00:31:10.805Z,20.47
2022-08-18T00:33:57.940Z,20.45
2022-08-18T00:36:44.342Z,20.43
2022-08-18T00:39:35.022Z,20.39
2022-08-18T00:42:31.016Z,20.36
2022-08-18T00:45:22.110Z,20.38
2022-08-18T00:48:11.549Z,20.37
2022-08-18T00:51:00.825Z,20.37
2022-08-18T00:53:51.571Z,20.37
2022-08-18T00:56:43.961Z,20.35
2022-08-18T00:59:36.852Z,20.34
2022-08-18T01:02:33.037Z,20.34
2022-08-18T01:05:25.563Z,20.32
2022-08-18T01:08:15.520Z,20.27
2022-08-18T01:11:04.425Z,20.22
2022-08-18T01:13:51.371Z,20.19
2022-08-18T01:16:57.524Z,20.18
2022-08-18T01:20:03.148Z,20.16
2022-08-18T01:23:04.685Z,20.14
2022-08-18T01:26:01.082Z,20.11
2022-08-18T01:28:49.670Z,20.06
2022-08-18T01:31:54.801Z,20.03
2022-08-18T01:34:42.093Z,19.98
2022-08-18T01:37:30.179Z,19.95
2022-08-18T01:41:27.331Z,19.91
2022-08-18T01:43:29.276Z,19.89
2022-08-18T01:46:20.119Z,19.81
2022-08-18T01:49:08.590Z,19.78
2022-08-18T01:51:55.729Z,19.78
2022-08-18T01:54:43.089Z,19.74
2022-08-18T01:57:32.176Z,19.67
2022-08-18T02:00:19.832Z,19.69
2022-08-18T02:03:09.492Z,19.70
2022-08-18T02:06:00.217Z,19.69
2022-08-18T02:08:53.655Z,19.68
2022-08-18T02:11:40.650Z,19.67
2022-08-18T02:14:31.403Z,19.62
2022-08-18T02:17:18.724Z,19.57
2022-08-18T02:20:06.393Z,19.53
2022-08-18T02:22:53.493Z,19.36
2022-08-18T02:25:40.853Z,19.42
2022-08-18T02:28:30.698Z,19.37
2022-08-18T02:31:22.018Z,19.34
2022-08-18T02:34:08.520Z,19.29
2022-08-18T02:36:55.445Z,19.26
2022-08-18T02:39:42.138Z,19.23
2022-08-18T02:42:31.171Z,19.24
2022-08-18T02:45:17.854Z,19.18
2022-08-18T02:48:07.030Z,19.16
2022-08-18T02:51:01.497Z,19.11
2022-08-18T02:53:48.660Z,19.10
2022-08-18T02:56:41.251Z,19.06
2022-08-18T02:59:40.801Z,19.04
2022-08-18T03:02:28.052Z,19.04
2022-08-18T03:05:16.595Z,19.04
2022-08-18T03:08:03.000Z,19.03
2022-08-18T03:10:53.125Z,19.03
2022-08-18T03:13:39.598Z,19.01
2022-08-18T03:16:26.352Z,18.98
2022-08-18T03:19:16.374Z,18.97
2022-08-18T03:22:16.099Z,18.92
2022-08-18T03:25:12.821Z,18.85
2022-08-18T03:27:59.521Z,18.83
2022-08-18T03:30:46.385Z,18.79
2022-08-18T03:33:33.174Z,18.77
2022-08-18T03:36:22.620Z,18.73
2022-08-18T03:39:12.647Z,18.72
2022-08-18T03:42:01.491Z,18.69
2022-08-18T03:44:48.839Z,18.67
2022-08-18T03:47:35.705Z,18.66
2022-08-18T03:50:25.682Z,18.64
2022-08-18T03:53:12.832Z,18.59
2022-08-18T03:56:01.111Z,18.56
2022-08-18T03:58:50.374Z,18.52
2022-08-18T04:01:40.431Z,18.47
2022-08-18T04:04:29.416Z,18.44
2022-08-18T04:07:17.677Z,18.40
2022-08-18T04:10:05.249Z,18.35
2022-08-18T04:12:53.360Z,18.36
2022-08-18T04:15:40.155Z,18.39
2022-08-18T04:18:28.109Z,18.43
2022-08-18T04:21:14.761Z,18.46
2022-08-18T04:24:05.322Z,18.52
2022-08-18T04:26:52.015Z,18.58
2022-08-18T04:29:40.404Z,18.62
2022-08-18T04:32:29.841Z,18.67
2022-08-18T04:35:17.304Z,18.70
2022-08-18T04:38:03.785Z,18.73
2022-08-18T04:40:52.401Z,18.77
2022-08-18T04:43:38.720Z,18.88
2022-08-18T04:46:26.934Z,18.96
2022-08-18T04:49:13.649Z,19.01
2022-08-18T04:52:32.064Z,19.06
2022-08-18T04:55:24.269Z,19.03
2022-08-18T04:58:11.016Z,19.03
2022-08-18T05:01:00.414Z,19.02
2022-08-18T05:03:50.289Z,19.04
2022-08-18T05:06:37.727Z,19.07
2022-08-18T05:09:24.485Z,19.14
2022-08-18T05:12:16.973Z,19.22
2022-08-18T05:15:03.785Z,19.37
2022-08-18T05:17:51.167Z,19.58
2022-08-18T05:20:41.407Z,19.86
2022-08-18T05:23:31.746Z,20.12
2022-08-18T05:26:19.965Z,20.36
2022-08-18T05:29:18.969Z,20.54
2022-08-18T05:32:07.902Z,20.67
2022-08-18T05:34:54.624Z,20.71
2022-08-18T05:37:52.505Z,20.74
2022-08-18T05:40:39.421Z,20.74
2022-08-18T05:43:26.063Z,20.74
2022-08-18T05:46:12.911Z,20.73
2022-08-18T05:49:00.137Z,20.74
2022-08-18T05:51:49.243Z,20.77
2022-08-18T05:54:57.968Z,20.77
2022-08-18T05:57:51.717Z,20.91
2022-08-18T06:00:38.568Z,21.10
2022-08-18T06:03:28.523Z,21.29
2022-08-18T06:06:19.988Z,21.41
2022-08-18T06:09:13.247Z,21.34
2022-08-18T06:12:09.096Z,21.24
2022-08-18T06:15:06.226Z,21.26
2022-08-18T06:18:17.008Z,21.25
2022-08-18T06:21:15.628Z,21.26
2022-08-18T06:24:11.164Z,21.28
2022-08-18T06:27:10.052Z,21.34
2022-08-18T06:30:07.173Z,21.61
2022-08-18T06:33:23.246Z,21.72
2022-08-18T06:36:19.255Z,21.84
2022-08-18T06:39:13.477Z,21.98
2022-08-18T06:42:05.629Z,22.11
2022-08-18T06:44:59.561Z,22.27
2022-08-18T06:47:54.848Z,22.45
2022-08-18T06:50:46.856Z,22.78
2022-08-18T06:53:56.062Z,23.01
2022-08-18T06:56:50.536Z,23.06
2022-08-18T06:59:38.554Z,23.11
2022-08-18T07:02:37.460Z,23.13
2022-08-18T07:05:26.390Z,23.15
2022-08-18T07:08:18.365Z,23.21
2022-08-18T07:11:15.599Z,23.36
2022-08-18T07:14:21.572Z,23.32
2022-08-18T07:17:10.847Z,23.40
2022-08-18T07:20:02.876Z,23.43
2022-08-18T07:22:56.159Z,23.32
2022-08-18T07:25:45.748Z,23.20
2022-08-18T07:28:34.438Z,23.25
2022-08-18T07:31:36.119Z,23.31
2022-08-18T07:34:28.761Z,23.33
2022-08-18T07:37:22.854Z,23.34
2022-08-18T07:40:23.426Z,23.41
2022-08-18T07:43:18.203Z,23.57
2022-08-18T07:46:13.517Z,23.67
2022-08-18T07:49:00.157Z,23.85
2022-08-18T07:51:53.183Z,23.98
2022-08-18T07:57:46.125Z,23.95
2022-08-18T08:00:58.226Z,24.14
2022-08-18T08:03:56.923Z,24.19
2022-08-18T08:07:06.468Z,24.23
2022-08-18T08:10:18.978Z,24.40
2022-08-18T08:13:37.071Z,24.49
2022-08-18T08:16:36.488Z,24.63
2022-08-18T08:20:08.528Z,24.68
2022-08-18T08:23:06.821Z,24.81
2022-08-18T08:26:23.813Z,24.87
2022-08-18T08:29:22.860Z,24.94
2022-08-18T08:32:13.541Z,24.78
2022-08-18T08:35:09.484Z,24.98
2022-08-18T08:38:22.984Z,25.10
2022-08-18T08:41:14.603Z,25.18
2022-08-18T08:44:07.164Z,25.16
2022-08-18T08:46:59.867Z,25.16
2022-08-18T08:49:55.048Z,25.25
2022-08-18T08:52:57.004Z,25.32
2022-08-18T08:55:48.827Z,25.57
2022-08-18T08:58:42.948Z,25.69
2022-08-18T09:01:39.068Z,25.92
2022-08-18T09:04:39.548Z,26.01
2022-08-18T09:08:14.594Z,26.19
2022-08-18T09:11:28.520Z,26.28
2022-08-18T09:14:43.308Z,26.39
2022-08-18T09:17:52.393Z,26.46
2022-08-18T09:20:53.382Z,26.45
2022-08-18T09:23:43.754Z,26.55
2022-08-18T09:26:42.726Z,26.57
2022-08-18T09:29:51.100Z,26.76
2022-08-18T09:32:54.796Z,26.89
2022-08-18T09:36:10.517Z,27.00
2022-08-18T09:39:20.412Z,27.13
2022-08-18T09:42:14.422Z,27.14
2022-08-18T09:45:08.505Z,27.18
2022-08-18T09:51:40.033Z,27.55
2022-08-18T09:54:32.544Z,27.90
2022-08-18T09:57:23.047Z,28.02
2022-08-18T10:00:30.498Z,28.14
2022-08-18T10:03:30.975Z,28.25
2022-08-18T10:06:23.910Z,28.47
2022-08-18T10:09:36.862Z,28.59
2022-08-18T10:12:43.202Z,29.02
2022-08-18T10:15:46.139Z,29.16
2022-08-18T10:18:54.740Z,29.25
2022-08-18T10:22:06.449Z,29.42
2022-08-18T10:24:57.391Z,29.62
2022-08-18T10:27:56.723Z,29.75
2022-08-18T10:31:06.332Z,29.90
2022-08-18T10:34:23.591Z,30.05
2022-08-18T10:37:16.876Z,30.17
2022-08-18T10:40:14.669Z,30.09
2022-08-18T10:43:46.152Z,30.24
2022-08-18T10:46:25.144Z,30.55
2022-08-18T10:49:26.030Z,30.62
2022-08-18T10:52:39.044Z,30.69
2022-08-18T10:55:50.437Z,30.62
2022-08-18T10:58:53.325Z,30.43
2022-08-18T11:01:57.168Z,30.83
2022-08-18T11:04:47.098Z,30.59
2022-08-18T11:14:17.377Z,30.75
2022-08-18T11:17:17.566Z,30.83
2022-08-18T11:20:08.241Z,30.81
2022-08-18T11:22:59.176Z,30.70
2022-08-18T11:25:46.160Z,31.01
2022-08-18T11:28:38.995Z,30.96
2022-08-18T11:31:32.204Z,31.08
2022-08-18T11:34:30.381Z,31.04
2022-08-18T11:37:25.669Z,30.93
2022-08-18T11:43:40.899Z,30.62
2022-08-18T11:46:33.511Z,30.84
2022-08-18T11:49:34.013Z,30.88
2022-08-18T11:52:29.182Z,31.14
2022-08-18T11:55:23.957Z,31.12
2022-08-18T11:58:12.726Z,31.14
2022-08-18T12:01:02.973Z,31.27
2022-08-18T12:03:50.166Z,31.64
2022-08-18T12:06:40.500Z,31.96
2022-08-18T12:10:16.293Z,32.05
2022-08-18T12:12:47.468Z,31.94
2022-08-18T12:15:47.353Z,32.22
2022-08-18T12:18:34.371Z,32.50
2022-08-18T12:21:21.286Z,32.65
2022-08-18T12:24:16.485Z,32.63
2022-08-18T12:27:21.267Z,32.72
2022-08-18T12:30:19.144Z,32.72
2022-08-18T12:33:12.211Z,32.49
2022-08-18T12:35:59.822Z,32.40
2022-08-18T12:38:51.857Z,32.42
2022-08-18T12:41:44.280Z,32.18
2022-08-18T12:44:31.266Z,32.18
2022-08-18T12:47:21.502Z,32.03
2022-08-18T12:50:09.134Z,32.30
2022-08-18T12:52:57.077Z,32.23
2022-08-18T12:55:45.515Z,32.15
2022-08-18T12:58:36.303Z,31.97
2022-08-18T13:01:24.063Z,31.81
2022-08-18T13:04:14.039Z,31.82
2022-08-18T13:07:05.840Z,31.76
2022-08-18T13:09:54.226Z,31.63
2022-08-18T13:12:41.004Z,31.45
2022-08-18T13:15:29.999Z,31.70
2022-08-18T13:18:16.540Z,31.83
2022-08-18T13:21:07.332Z,31.89
2022-08-18T13:23:53.920Z,32.13
2022-08-18T13:26:45.891Z,32.10
2022-08-18T13:29:35.051Z,31.81
2022-08-18T13:32:26.063Z,31.52
2022-08-18T13:35:15.670Z,31.22
2022-08-18T13:38:12.348Z,30.98
2022-08-18T13:41:06.412Z,30.75
2022-08-18T13:43:53.414Z,30.48
2022-08-18T13:46:45.786Z,30.36
2022-08-18T13:49:33.783Z,30.16
2022-08-18T13:52:34.157Z,28.96
2022-08-18T13:55:23.614Z,27.22
2022-08-18T13:58:20.425Z,26.02
2022-08-18T14:01:42.010Z,25.09
2022-08-18T14:04:20.119Z,24.74
2022-08-18T14:07:11.819Z,24.44
2022-08-18T14:10:07.161Z,24.36
2022-08-18T14:13:09.482Z,24.09
2022-08-18T14:16:08.502Z,23.85
2022-08-18T14:19:14.535Z,24.02
2022-08-18T14:22:19.240Z,23.44
2022-08-18T14:25:25.462Z,23.21
2022-08-18T14:28:13.256Z,23.18
2022-08-18T14:31:02.025Z,23.03
2022-08-18T14:33:51.927Z,23.00
2022-08-18T14:36:42.095Z,22.60
2022-08-18T14:39:30.760Z,22.39
2022-08-18T14:42:32.997Z,22.26
2022-08-18T14:45:34.372Z,22.20
2022-08-18T14:48:23.266Z,22.00
2022-08-18T14:51:11.406Z,21.88
2022-08-18T14:53:57.888Z,21.87
2022-08-18T14:56:44.839Z,21.61
2022-08-18T14:59:34.565Z,21.71
2022-08-18T15:02:24.773Z,21.59
2022-08-18T15:05:19.907Z,21.67
2022-08-18T15:08:11.844Z,21.52
2022-08-18T15:10:58.550Z,21.69
2022-08-18T15:13:46.520Z,21.95
2022-08-18T15:16:38.547Z,22.03
2022-08-18T15:19:59.294Z,21.94
2022-08-18T15:22:56.376Z,21.83
2022-08-18T15:25:46.286Z,21.84
2022-08-18T15:28:39.058Z,21.94
2022-08-18T15:34:46.061Z,22.01
2022-08-18T15:37:35.059Z,22.02
2022-08-18T15:40:30.751Z,21.96
2022-08-18T15:43:22.276Z,22.10
2022-08-18T15:46:12.268Z,22.24
2022-08-18T15:49:05.504Z,22.19
2022-08-18T15:51:55.129Z,22.20
2022-08-18T15:54:43.441Z,22.28
2022-08-18T15:57:40.100Z,22.49
2022-08-18T16:00:29.956Z,22.75
2022-08-18T16:03:18.102Z,23.07
2022-08-18T16:06:04.885Z,23.02
2022-08-18T16:08:54.755Z,23.09
2022-08-18T16:11:42.641Z,23.34
2022-08-18T16:14:30.412Z,23.35
2022-08-18T16:17:23.748Z,23.19
2022-08-18T16:20:18.749Z,23.04
2022-08-18T16:23:08.707Z,23.00
2022-08-18T16:26:02.439Z,23.04
2022-08-18T16:28:53.129Z,23.00
2022-08-18T16:31:41.084Z,23.05
2022-08-18T16:34:30.871Z,23.11
2022-08-18T16:37:17.422Z,23.11
2022-08-18T16:40:05.490Z,22.98
2022-08-18T16:42:56.434Z,22.77
2022-08-18T16:45:43.590Z,22.43
2022-08-18T16:48:30.410Z,22.13
2022-08-18T16:51:19.306Z,21.74
2022-08-18T16:54:06.134Z,21.37
2022-08-18T16:56:52.702Z,20.89
2022-08-18T16:59:58.816Z,20.90
2022-08-18T17:03:03.600Z,20.71
2022-08-18T17:05:50.438Z,20.75
2022-08-18T17:08:37.868Z,20.84
2022-08-18T17:11:27.188Z,20.91
2022-08-18T17:14:14.015Z,20.92
2022-08-18T17:17:03.697Z,20.99
2022-08-18T17:19:52.038Z,20.85
2022-08-18T17:22:38.671Z,20.69
2022-08-18T17:25:27.674Z,20.66
2022-08-18T17:28:23.855Z,20.74
2022-08-18T17:31:13.195Z,20.70
2022-08-18T17:34:07.330Z,20.69
2022-08-18T17:36:57.044Z,20.74
2022-08-18T17:39:53.712Z,20.72
2022-08-18T17:42:40.662Z,20.79
2022-08-18T17:45:31.997Z,20.71
2022-08-18T17:48:23.415Z,20.80
2022-08-18T17:51:31.617Z,20.61
2022-08-18T17:54:30.842Z,20.56
2022-08-18T17:57:23.651Z,20.55
2022-08-18T18:00:13.883Z,20.70
2022-08-18T18:03:01.481Z,20.61
2022-08-18T18:05:52.753Z,20.70
2022-08-18T18:08:52.372Z,20.69
2022-08-18T18:11:42.987Z,20.64
2022-08-18T18:14:37.669Z,20.59
2022-08-18T18:17:28.350Z,20.56
2022-08-18T18:20:38.091Z,20.53
2022-08-18T18:23:29.283Z,20.51
2022-08-18T18:26:29.565Z,20.50
2022-08-18T18:29:22.506Z,20.47
2022-08-18T18:32:25.535Z,20.42
2022-08-18T18:35:16.818Z,20.44
2022-08-18T18:38:06.413Z,20.42
2022-08-18T18:40:58.945Z,20.37
2022-08-18T18:43:50.279Z,20.43
2022-08-18T18:46:44.412Z,20.34
2022-08-18T18:49:39.582Z,20.23
2022-08-18T18:52:36.612Z,20.31
2022-08-18T18:55:25.833Z,20.29
2022-08-18T18:58:23.064Z,20.27
2022-08-18T19:01:19.373Z,20.29
2022-08-18T19:04:11.431Z,20.29
2022-08-18T19:07:05.290Z,20.36
2022-08-18T19:10:01.710Z,20.37
2022-08-18T19:12:57.717Z,20.38
2022-08-18T19:15:47.526Z,20.32
2022-08-18T19:18:40.455Z,20.35
2022-08-18T19:22:05.033Z,20.29
2022-08-18T19:24:46.355Z,20.22
2022-08-18T19:27:37.927Z,20.30
2022-08-18T19:30:24.898Z,20.24
2022-08-18T19:33:15.955Z,20.31
2022-08-18T19:36:23.146Z,20.27
2022-08-18T19:39:17.635Z,20.21
2022-08-18T19:42:10.717Z,20.20
2022-08-18T19:45:15.784Z,20.13
2022-08-18T19:48:08.845Z,20.11
2022-08-18T19:51:01.256Z,20.05
2022-08-18T19:54:05.659Z,20.08
2022-08-18T19:57:04.909Z,20.00
2022-08-18T20:00:10.322Z,20.00
2022-08-18T20:03:26.709Z,20.05
2022-08-18T20:06:34.727Z,20.08
2022-08-18T20:09:42.211Z,20.11
2022-08-18T20:12:48.093Z,20.15
2022-08-18T20:15:35.821Z,20.18
2022-08-18T20:18:35.951Z,20.21
2022-08-18T20:21:47.397Z,20.12
2022-08-18T20:25:06.231Z,20.10
2022-08-18T20:28:08.823Z,20.07
2022-08-18T20:31:05.008Z,20.14
2022-08-18T20:34:14.191Z,20.13
2022-08-18T20:37:08.406Z,20.08
2022-08-18T20:39:58.101Z,20.23
2022-08-18T20:42:56.089Z,20.33
2022-08-18T20:46:07.850Z,20.42
2022-08-18T20:49:09.886Z,20.40
2022-08-18T20:52:06.511Z,20.40
2022-08-18T20:55:11.741Z,20.32
2022-08-18T20:58:05.519Z,20.26
2022-08-18T21:00:58.327Z,20.12
2022-08-18T21:03:47.439Z,20.22
2022-08-18T21:06:38.235Z,20.27
2022-08-18T21:09:25.241Z,20.39
2022-08-18T21:12:14.686Z,20.39
2022-08-18T21:15:10.511Z,20.46
2022-08-18T21:18:02.677Z,20.45
2022-08-18T21:20:51.401Z,20.42
2022-08-18T21:23:44.498Z,20.36
2022-08-18T21:26:33.144Z,20.31
2022-08-18T21:29:21.023Z,20.26
2022-08-18T21:32:13.022Z,20.19
2022-08-18T21:35:06.038Z,20.19
2022-08-18T21:37:59.692Z,20.12
2022-08-18T21:40:49.197Z,20.23
2022-08-18T21:43:42.298Z,20.12
2022-08-18T21:46:31.825Z,20.06
2022-08-18T21:49:26.890Z,20.09
2022-08-18T21:52:24.312Z,20.08
2022-08-18T21:55:20.640Z,20.04
2022-08-18T21:58:18.028Z,20.14
2022-08-18T22:01:13.997Z,20.07
2022-08-18T22:04:05.517Z,20.09
2022-08-18T22:06:54.161Z,20.06
2022-08-18T22:10:17.854Z,20.24
2022-08-18T22:13:21.928Z,20.17
2022-08-18T22:16:26.001Z,20.14
2022-08-18T22:19:26.253Z,20.12
2022-08-18T22:22:26.743Z,20.10
2022-08-18T22:25:21.951Z,20.10
2022-08-18T22:28:08.809Z,20.10
2022-08-18T22:30:55.654Z,20.06
2022-08-18T22:33:42.613Z,20.13
2022-08-18T22:36:34.850Z,20.05
2022-08-18T22:39:26.199Z,20.04
2022-08-18T22:42:14.967Z,20.05
2022-08-18T22:45:04.811Z,20.07
2022-08-18T22:47:52.325Z,20.22
2022-08-18T22:50:39.240Z,20.27
2022-08-18T22:53:27.305Z,20.26
2022-08-18T22:56:14.125Z,20.29
2022-08-18T22:59:15.814Z,20.07
2022-08-18T23:02:04.392Z,20.08
2022-08-18T23:04:51.021Z,20.16
2022-08-18T23:07:38.255Z,20.11
2022-08-18T23:10:26.698Z,20.11
2022-08-18T23:13:13.309Z,20.08
2022-08-18T23:16:12.820Z,20.10
2022-08-18T23:19:06.767Z,20.01
2022-08-18T23:21:53.358Z,19.94
2022-08-18T23:24:40.550Z,19.93
2022-08-18T23:27:28.846Z,19.90
2022-08-18T23:30:15.808Z,19.80
2022-08-18T23:33:03.583Z,19.87
2022-08-18T23:35:50.420Z,19.86
2022-08-18T23:38:38.494Z,19.91
2022-08-18T23:41:24.981Z,19.90
2022-08-18T23:44:14.951Z,20.00
2022-08-18T23:47:01.926Z,20.05
2022-08-18T23:49:48.358Z,19.97
2022-08-18T23:52:35.162Z,20.03
2022-08-18T23:55:21.942Z,20.03
2022-08-18T23:58:09.559Z,20.08
